Gearhart, Oregon
Current Conditions -  °F | °C
As of 10:34 PM on Monday 20 Oct 2014 (Local Time) from KAST Reporting Station
Scattered Clouds Scattered Clouds  
Wind Chill: 56°   Ceiling: Unl
Heat Index: 56°   Visibility: 10mi
Dew Point: 52°   Wind: 9mph
Humidity: 87%   Direction: 180°S
Pressure: 29.79"   Gusts: NA
Location:  45.8905°N, 123.667°W
Report Text: KAST 210534Z AUTO 18008KT 10SM SCT027 13/11 A2979 RMK AO2 RAB21E32 P0000 T01330111
Loading
Personal Weather Stations






























Interactive Weather Map
Tropical Storm Tracking
New forecast layout! Learn more

10-Day Weather Forecast

Advertisements
Track Severe Weather on mobile